Time;durP1;ratioP1;P1;durP2;ratioP2;P2;SDS_P1;SDS_P2;PMS_P1;PMS_P2;Temp;Humidity;BMP_temperature;BMP_pressure;BME280_temperature;BME280_humidity;BME280_pressure;Samples;Min_cycle;Max_cycle;Signal;HPM_P1;HPM_P2
2021/12/18 00:00:23;;;;;;;;;;;;;;;;;;2059008;28;1667;-77
2021/12/18 00:01:28;;;;;;;;;;;;;;;;;;2061587;28;816;-78
2021/12/18 00:02:29;;;;;;;;;;;;;;;;;;2059295;28;856;-78
2021/12/18 00:03:31;;;;;;;;;;;;;;;;;;2058787;28;1800;-78
2021/12/18 00:04:32;;;;;;;;;;;;;;;;;;2050991;29;1546;-78
2021/12/18 00:05:33;;;;;;;;;;;;;;;;;;2042774;29;1500;-78
2021/12/18 00:06:34;;;;;;;;;;;;;;;;;;2051140;28;1017;-78
2021/12/18 00:07:36;;;;;;;;;;;;;;;;;;2050890;29;1272;-78
2021/12/18 00:08:37;;;;;;;;;;;;;;;;;;2050755;29;1694;-79
2021/12/18 00:09:39;;;;;;;;;;;;;;;;;;2050745;28;1701;-78
2021/12/18 00:10:39;;;;;;;;;;;;;;;;;;2050674;29;1717;-78
2021/12/18 00:11:41;;;;;;;;;;;;;;;;;;2051175;28;1390;-78
2021/12/18 00:12:47;;;;;;;;;;;;;;;;;;2050792;29;1536;-80
2021/12/18 00:13:50;;;;;;;;;;;;;;;;;;2043296;29;1910;-78
2021/12/18 00:14:51;;;;;;;;;;;;;;;;;;2050733;28;1499;-79
2021/12/18 00:15:52;;;;;;;;;;;;;;;;;;2058444;28;1004;-78
2021/12/18 00:16:53;;;;;;;;;;;;;;;;;;2042744;29;1198;-78
2021/12/18 00:17:55;;;;;;;;;;;;;;;;;;2042575;29;1737;-78
2021/12/18 00:18:57;;;;;;;;;;;;;;;;;;2050682;29;1301;-78
2021/12/18 00:19:59;;;;;;;;;;;;;;;;;;2050884;29;1395;-78
2021/12/18 00:21:00;;;;;;;;;;;;;;;;;;2050535;29;1676;-79
2021/12/18 00:22:01;;;;;;;;;;;;;;;;;;2052142;28;1471;-78
2021/12/18 00:23:02;;;;;;;;;;;;;;;;;;2050457;29;1381;-78
2021/12/18 00:24:04;;;;;;;;;;;;;;;;;;2051063;29;824;-78
2021/12/18 00:25:05;;;;;;;;;;;;;;;;;;2058408;28;1654;-80
2021/12/18 00:26:06;;;;;;;;;;;;;;;;;;2058526;28;1108;-80
2021/12/18 00:27:07;;;;;;;;;;;;;;;;;;2050913;28;948;-79
2021/12/18 00:28:09;;;;;;;;;;;;;;;;;;2050794;29;1361;-79
2021/12/18 00:29:11;;;;;;;;;;;;;;;;;;2058408;28;1548;-78
2021/12/18 00:30:13;;;;;;;;;;;;;;;;;;2058743;28;1372;-82
2021/12/18 00:31:14;;;;;;;;;;;;;;;;;;2050623;29;836;-78
2021/12/18 00:32:16;;;;;;;;;;;;;;;;;;2051400;29;813;-79
2021/12/18 00:33:16;;;;;;;;;;;;;;;;;;2058395;28;1509;-79
2021/12/18 00:34:18;;;;;;;;;;;;;;;;;;2058620;28;1914;-79
2021/12/18 00:35:19;;;;;;;;;;;;;;;;;;2058425;28;1794;-78
2021/12/18 00:36:21;;;;;;;;;;;;;;;;;;2050753;29;1482;-78
2021/12/18 00:37:21;;;;;;;;;;;;;;;;;;2042640;29;876;-78
2021/12/18 00:38:28;;;;;;;;;;;;;;;;;;2050406;29;1555;-78
2021/12/18 00:39:32;;;;;;;;;;;;;;;;;;2058404;28;1319;-78
2021/12/18 00:40:44;;;;;;;;;;;;;;;;;;2050530;29;1354;-78
2021/12/18 00:42:00;;;;;;;;;;;;;;;;;;2043966;29;1111;-78
2021/12/18 00:43:13;;;;;;;;;;;;;;;;;;2050613;29;1650;-78
2021/12/18 00:44:16;;;;;;;;;;;;;;;;;;2042583;29;1064;-78
2021/12/18 00:45:19;;;;;;;;;;;;;;;;;;2050709;28;1830;-79
2021/12/18 00:46:19;;;;;;;;;;;;;;;;;;2050451;29;1587;-78
2021/12/18 00:47:21;;;;;;;;;;;;;;;;;;2034447;29;1523;-78
2021/12/18 00:48:22;;;;;;;;;;;;;;;;;;2034772;29;1236;-78
2021/12/18 00:49:24;;;;;;;;;;;;;;;;;;2034928;29;1512;-79
2021/12/18 00:50:29;;;;;;;;;;;;;;;;;;2034923;29;1234;-78
2021/12/18 00:51:30;;;;;;;;;;;;;;;;;;2050441;28;2030;-78
2021/12/18 00:52:32;;;;;;;;;;;;;;;;;;2058370;28;1638;-79
2021/12/18 00:53:32;;;;;;;;;;;;;;;;;;2050344;29;919;-78
2021/12/18 00:54:35;;;;;;;;;;;;;;;;;;2058707;28;1994;-78
2021/12/18 00:55:37;;;;;;;;;;;;;;;;;;2058302;28;887;-78
2021/12/18 00:56:39;;;;;;;;;;;;;;;;;;2057771;28;1263;-78
2021/12/18 00:57:40;;;;;;;;;;;;;;;;;;2059026;28;978;-78
2021/12/18 00:58:42;;;;;;;;;;;;;;;;;;2059065;28;899;-78
2021/12/18 00:59:44;;;;;;;;;;;;;;;;;;2066340;28;1242;-78
2021/12/18 01:00:46;;;;;;;;;;;;;;;;;;2058331;28;1283;-78
2021/12/18 01:01:47;;;;;;;;;;;;;;;;;;2042824;29;1057;-78
2021/12/18 01:02:50;;;;;;;;;;;;;;;;;;2058413;28;1624;-79
2021/12/18 01:03:51;;;;;;;;;;;;;;;;;;2057994;28;835;-78
2021/12/18 01:04:53;;;;;;;;;;;;;;;;;;2051304;28;1108;-78
2021/12/18 01:05:54;;;;;;;;;;;;;;;;;;2058596;28;1389;-78
2021/12/18 01:06:56;;;;;;;;;;;;;;;;;;2066443;28;899;-78
2021/12/18 01:07:58;;;;;;;;;;;;;;;;;;2066157;28;1167;-79
2021/12/18 01:09:00;;;;;;;;;;;;;;;;;;2066100;28;883;-79
2021/12/18 01:10:07;;;;;;;;;;;;;;;;;;2059204;28;776;-78
2021/12/18 01:12:36;;;;;;;;;;;;;;;;;;2048158;28;1225;-79
2021/12/18 01:13:47;;;;;;;;;;;;;;;;;;2043077;29;1205;-79
2021/12/18 01:15:03;;;;;;;;;;;;;;;;;;2050406;28;1910;-78
2021/12/18 01:16:11;;;;;;;;;;;;;;;;;;2044111;29;1347;-78
2021/12/18 01:22:48;;;;;;;;;;;;;;;;;;2053237;28;1610;-78
2021/12/18 01:23:48;;;;;;;;;;;;;;;;;;2060754;28;853;-78
2021/12/18 01:24:50;;;;;;;;;;;;;;;;;;2066933;28;897;-78
2021/12/18 01:25:51;;;;;;;;;;;;;;;;;;2058087;28;1513;-79
2021/12/18 01:26:53;;;;;;;;;;;;;;;;;;2056460;28;1554;-79
2021/12/18 01:27:54;;;;;;;;;;;;;;;;;;2057011;28;1496;-80
2021/12/18 01:28:55;;;;;;;;;;;;;;;;;;2059008;28;1075;-78
2021/12/18 01:29:57;;;;;;;;;;;;;;;;;;2049974;29;1655;-78
2021/12/18 01:31:00;;;;;;;;;;;;;;;;;;2045491;28;1560;-79
2021/12/18 01:32:00;;;;;;;;;;;;;;;;;;2066573;28;1272;-78
2021/12/18 01:33:02;;;;;;;;;;;;;;;;;;2074355;28;1786;-78
2021/12/18 01:34:03;;;;;;;;;;;;;;;;;;2074286;28;1211;-79
2021/12/18 01:35:05;;;;;;;;;;;;;;;;;;2066184;28;1948;-78
2021/12/18 01:36:06;;;;;;;;;;;;;;;;;;2066223;28;887;-78
2021/12/18 01:37:08;;;;;;;;;;;;;;;;;;2074959;28;825;-78
2021/12/18 01:38:09;;;;;;;;;;;;;;;;;;2066295;28;1687;-78
2021/12/18 01:39:10;;;;;;;;;;;;;;;;;;2066116;28;1161;-79
2021/12/18 01:40:12;;;;;;;;;;;;;;;;;;2066445;28;1357;-78
2021/12/18 01:41:14;;;;;;;;;;;;;;;;;;2062704;28;2044;-79
2021/12/18 01:42:52;;;;;;;;;;;;;;;;;;2050333;29;1333;-78
2021/12/18 01:45:17;;;;;;;;;;;;;;;;;;2025873;29;1395;-79
2021/12/18 01:46:37;;;;;;;;;;;;;;;;;;2047694;29;1220;-79
2021/12/18 01:51:58;;;;;;;;;;;;;;;;;;2062320;28;1886;-77
2021/12/18 01:52:59;;;;;;;;;;;;;;;;;;2068911;28;1252;-78
2021/12/18 01:54:02;;;;;;;;;;;;;;;;;;2066138;28;1619;-78
2021/12/18 01:55:03;;;;;;;;;;;;;;;;;;2058266;28;1919;-78
2021/12/18 01:56:05;;;;;;;;;;;;;;;;;;2064350;28;1038;-78
2021/12/18 01:57:05;;;;;;;;;;;;;;;;;;2066220;28;1880;-78
2021/12/18 01:58:07;;;;;;;;;;;;;;;;;;2058029;28;1756;-78
2021/12/18 01:59:08;;;;;;;;;;;;;;;;;;2057764;28;830;-78
2021/12/18 02:00:17;;;;;;;;;;;;;;;;;;2066178;28;1484;-78
2021/12/18 02:01:20;;;;;;;;;;;;;;;;;;2066118;28;1302;-78
2021/12/18 02:02:21;;;;;;;;;;;;;;;;;;2066726;28;926;-78
2021/12/18 02:03:23;;;;;;;;;;;;;;;;;;2065836;28;1677;-78
2021/12/18 02:04:23;;;;;;;;;;;;;;;;;;2057862;28;1681;-78
2021/12/18 02:05:25;;;;;;;;;;;;;;;;;;2049777;29;1661;-78
2021/12/18 02:06:26;;;;;;;;;;;;;;;;;;2052751;28;2025;-77
2021/12/18 02:07:28;;;;;;;;;;;;;;;;;;2058046;28;1740;-77
2021/12/18 02:08:29;;;;;;;;;;;;;;;;;;2050043;29;1655;-77
2021/12/18 02:09:46;;;;;;;;;;;;;;;;;;2049840;28;1285;-78
2021/12/18 02:10:53;;;;;;;;;;;;;;;;;;2058268;28;1925;-78
2021/12/18 02:11:54;;;;;;;;;;;;;;;;;;2058271;28;922;-78
2021/12/18 02:13:03;;;;;;;;;;;;;;;;;;2050098;29;1560;-77
2021/12/18 02:14:22;;;;;;;;;;;;;;;;;;2043035;29;1274;-78
2021/12/18 02:19:51;;;;;;;;;;;;;;;;;;2052395;28;1680;-79
2021/12/18 02:20:53;;;;;;;;;;;;;;;;;;2056532;28;2027;-78
2021/12/18 02:21:54;;;;;;;;;;;;;;;;;;2072418;28;1185;-78
2021/12/18 02:22:55;;;;;;;;;;;;;;;;;;2066016;28;1556;-77
2021/12/18 02:23:57;;;;;;;;;;;;;;;;;;2065839;28;868;-77
2021/12/18 02:24:59;;;;;;;;;;;;;;;;;;2065852;28;1522;-78
2021/12/18 02:25:59;;;;;;;;;;;;;;;;;;2064072;28;2021;-77
2021/12/18 02:27:03;;;;;;;;;;;;;;;;;;2057702;28;1205;-78
2021/12/18 02:28:06;;;;;;;;;;;;;;;;;;2050011;28;1580;-77
2021/12/18 02:29:13;;;;;;;;;;;;;;;;;;2058292;28;950;-77
2021/12/18 02:30:13;;;;;;;;;;;;;;;;;;2066664;28;963;-79
2021/12/18 02:31:16;;;;;;;;;;;;;;;;;;2065495;28;1525;-77
2021/12/18 02:32:20;;;;;;;;;;;;;;;;;;2057798;28;1613;-79
2021/12/18 02:33:22;;;;;;;;;;;;;;;;;;2050288;28;1632;-79
2021/12/18 02:34:27;;;;;;;;;;;;;;;;;;2050293;28;1716;-77
2021/12/18 02:35:29;;;;;;;;;;;;;;;;;;2050068;28;1910;-79
2021/12/18 02:36:32;;;;;;;;;;;;;;;;;;2058065;28;899;-77
2021/12/18 02:37:39;;;;;;;;;;;;;;;;;;2066250;28;950;-77
2021/12/18 02:38:59;;;;;;;;;;;;;;;;;;2066582;28;765;-78
2021/12/18 02:41:28;;;;;;;;;;;;;;;;;;2060819;28;2444;-77
2021/12/18 02:42:32;;;;;;;;;;;;;;;;;;2074353;28;815;-78
2021/12/18 02:43:35;;;;;;;;;;;;;;;;;;2066027;28;1669;-78
2021/12/18 02:44:39;;;;;;;;;;;;;;;;;;2058164;28;1446;-78
2021/12/18 02:45:41;;;;;;;;;;;;;;;;;;2065704;28;1391;-78
2021/12/18 02:46:41;;;;;;;;;;;;;;;;;;2062238;28;1234;-78
2021/12/18 02:47:47;;;;;;;;;;;;;;;;;;2065861;28;1710;-78
2021/12/18 02:48:49;;;;;;;;;;;;;;;;;;2065889;28;1371;-78
2021/12/18 02:49:51;;;;;;;;;;;;;;;;;;2061233;28;1487;-78
2021/12/18 02:50:52;;;;;;;;;;;;;;;;;;2058079;28;962;-78
2021/12/18 02:51:55;;;;;;;;;;;;;;;;;;2065696;28;1726;-78
2021/12/18 02:52:55;;;;;;;;;;;;;;;;;;2057927;28;1568;-77
2021/12/18 02:53:57;;;;;;;;;;;;;;;;;;2049755;29;1515;-77
2021/12/18 02:54:58;;;;;;;;;;;;;;;;;;2057806;28;1914;-77
2021/12/18 02:56:01;;;;;;;;;;;;;;;;;;2059271;28;1616;-77
2021/12/18 02:57:02;;;;;;;;;;;;;;;;;;2057769;28;1546;-77
2021/12/18 02:58:03;;;;;;;;;;;;;;;;;;2065945;28;844;-78
2021/12/18 02:59:07;;;;;;;;;;;;;;;;;;2065632;28;1627;-78
2021/12/18 03:00:09;;;;;;;;;;;;;;;;;;2058237;28;1344;-78
2021/12/18 03:01:11;;;;;;;;;;;;;;;;;;2054953;28;1673;-77
2021/12/18 03:02:12;;;;;;;;;;;;;;;;;;2050231;28;1570;-77
2021/12/18 03:03:14;;;;;;;;;;;;;;;;;;2057766;28;1631;-82
2021/12/18 03:04:20;;;;;;;;;;;;;;;;;;2057664;28;1339;-77
2021/12/18 03:05:27;;;;;;;;;;;;;;;;;;2058331;28;813;-77
2021/12/18 03:06:33;;;;;;;;;;;;;;;;;;2054999;28;2100;-78
2021/12/18 03:07:35;;;;;;;;;;;;;;;;;;2058407;28;1728;-78
2021/12/18 03:08:46;;;;;;;;;;;;;;;;;;2057825;28;1530;-78
2021/12/18 03:18:59;;;;;;;;;;;;;;;;;;2050784;28;1571;-78
2021/12/18 03:20:01;;;;;;;;;;;;;;;;;;2067104;28;1216;-78
2021/12/18 03:23:33;;;;;;;;;;;;;;;;;;2058874;28;1678;-77
2021/12/18 03:24:41;;;;;;;;;;;;;;;;;;2059407;28;931;-77
2021/12/18 03:25:43;;;;;;;;;;;;;;;;;;2058983;28;1193;-78
2021/12/18 03:26:45;;;;;;;;;;;;;;;;;;2066357;28;1371;-78
2021/12/18 03:27:46;;;;;;;;;;;;;;;;;;2067142;28;884;-78
2021/12/18 03:28:48;;;;;;;;;;;;;;;;;;2067871;28;887;-78
2021/12/18 03:29:49;;;;;;;;;;;;;;;;;;2066676;28;1201;-78
2021/12/18 03:30:51;;;;;;;;;;;;;;;;;;2059123;28;1245;-78
2021/12/18 03:31:51;;;;;;;;;;;;;;;;;;2059017;28;923;-77
2021/12/18 03:32:54;;;;;;;;;;;;;;;;;;2067726;28;971;-77
2021/12/18 03:33:54;;;;;;;;;;;;;;;;;;2066982;28;1646;-78
2021/12/18 03:34:56;;;;;;;;;;;;;;;;;;2066954;28;1910;-78
2021/12/18 03:35:57;;;;;;;;;;;;;;;;;;2058163;28;2107;-78
2021/12/18 03:36:59;;;;;;;;;;;;;;;;;;2059031;28;832;-80
2021/12/18 03:37:59;;;;;;;;;;;;;;;;;;2067021;28;1963;-78
2021/12/18 03:39:02;;;;;;;;;;;;;;;;;;2067076;28;1714;-79
2021/12/18 03:40:03;;;;;;;;;;;;;;;;;;2059118;28;1606;-78
2021/12/18 03:41:05;;;;;;;;;;;;;;;;;;2051015;28;1456;-78
2021/12/18 03:42:06;;;;;;;;;;;;;;;;;;2059250;28;1363;-78
2021/12/18 03:43:08;;;;;;;;;;;;;;;;;;2066946;28;1075;-78
2021/12/18 03:44:08;;;;;;;;;;;;;;;;;;2059949;28;879;-78
2021/12/18 03:45:10;;;;;;;;;;;;;;;;;;2067600;28;737;-78
2021/12/18 03:46:11;;;;;;;;;;;;;;;;;;2058966;28;1490;-78
2021/12/18 03:47:13;;;;;;;;;;;;;;;;;;2058930;28;782;-78
2021/12/18 03:48:13;;;;;;;;;;;;;;;;;;2059023;28;1654;-78
2021/12/18 03:49:15;;;;;;;;;;;;;;;;;;2058801;28;1162;-79
2021/12/18 03:50:16;;;;;;;;;;;;;;;;;;2067651;28;953;-78
2021/12/18 03:51:18;;;;;;;;;;;;;;;;;;2067469;28;903;-77
2021/12/18 03:52:18;;;;;;;;;;;;;;;;;;2067255;28;1300;-78
2021/12/18 03:53:21;;;;;;;;;;;;;;;;;;2067072;28;895;-77
2021/12/18 03:54:23;;;;;;;;;;;;;;;;;;2058979;28;1222;-78
2021/12/18 03:55:26;;;;;;;;;;;;;;;;;;2058924;28;1972;-77
2021/12/18 03:56:27;;;;;;;;;;;;;;;;;;2058986;28;1522;-77
2021/12/18 03:57:28;;;;;;;;;;;;;;;;;;2058933;28;777;-82
2021/12/18 03:58:29;;;;;;;;;;;;;;;;;;2067946;28;927;-79
2021/12/18 03:59:31;;;;;;;;;;;;;;;;;;2067405;28;814;-79
2021/12/18 04:00:31;;;;;;;;;;;;;;;;;;2067389;28;908;-78
2021/12/18 04:01:34;;;;;;;;;;;;;;;;;;2066739;28;1616;-77
2021/12/18 04:02:34;;;;;;;;;;;;;;;;;;2058779;28;1661;-77
2021/12/18 04:03:36;;;;;;;;;;;;;;;;;;2058324;28;1559;-81
2021/12/18 04:04:37;;;;;;;;;;;;;;;;;;2058930;28;1519;-77
2021/12/18 04:05:39;;;;;;;;;;;;;;;;;;2058548;28;1553;-77
2021/12/18 04:06:39;;;;;;;;;;;;;;;;;;2065398;28;1934;-76
2021/12/18 04:07:44;;;;;;;;;;;;;;;;;;2066757;28;792;-78
2021/12/18 04:08:44;;;;;;;;;;;;;;;;;;2075384;28;951;-77
2021/12/18 04:09:48;;;;;;;;;;;;;;;;;;2066777;28;1623;-78
2021/12/18 04:10:49;;;;;;;;;;;;;;;;;;2066761;28;1689;-78
2021/12/18 04:11:51;;;;;;;;;;;;;;;;;;2058268;28;1316;-78
2021/12/18 04:12:59;;;;;;;;;;;;;;;;;;2058608;28;769;-77
2021/12/18 04:14:02;;;;;;;;;;;;;;;;;;2059005;28;1214;-77
2021/12/18 04:15:04;;;;;;;;;;;;;;;;;;2058362;28;1961;-77
2021/12/18 04:16:05;;;;;;;;;;;;;;;;;;2058721;28;1331;-77
2021/12/18 04:17:06;;;;;;;;;;;;;;;;;;2058637;28;1807;-77
2021/12/18 04:18:07;;;;;;;;;;;;;;;;;;2058820;28;824;-77
2021/12/18 04:19:08;;;;;;;;;;;;;;;;;;2058490;28;1351;-77
2021/12/18 04:20:10;;;;;;;;;;;;;;;;;;2058873;28;801;-77
2021/12/18 04:21:11;;;;;;;;;;;;;;;;;;2053597;28;1862;-77
2021/12/18 04:22:13;;;;;;;;;;;;;;;;;;2057855;28;1291;-77
2021/12/18 04:23:14;;;;;;;;;;;;;;;;;;2058575;28;1656;-79
2021/12/18 04:24:15;;;;;;;;;;;;;;;;;;2050374;28;1524;-77
2021/12/18 04:25:17;;;;;;;;;;;;;;;;;;2050178;28;912;-77
2021/12/18 04:26:19;;;;;;;;;;;;;;;;;;2050576;29;1366;-77
2021/12/18 04:27:20;;;;;;;;;;;;;;;;;;2050323;28;825;-78
2021/12/18 04:28:21;;;;;;;;;;;;;;;;;;2058894;28;956;-77
2021/12/18 04:29:22;;;;;;;;;;;;;;;;;;2057883;28;1547;-78
2021/12/18 04:30:24;;;;;;;;;;;;;;;;;;2058486;28;1233;-78
2021/12/18 04:31:24;;;;;;;;;;;;;;;;;;2058160;28;2096;-77
2021/12/18 04:32:26;;;;;;;;;;;;;;;;;;2059042;28;1197;-78
2021/12/18 04:33:26;;;;;;;;;;;;;;;;;;2050915;29;1697;-78
2021/12/18 04:34:28;;;;;;;;;;;;;;;;;;2051160;29;1595;-77
2021/12/18 04:35:29;;;;;;;;;;;;;;;;;;2058962;28;1906;-78
2021/12/18 04:36:31;;;;;;;;;;;;;;;;;;2053554;28;2107;-77
2021/12/18 04:37:31;;;;;;;;;;;;;;;;;;2050708;29;1339;-77
2021/12/18 04:38:33;;;;;;;;;;;;;;;;;;2050584;29;1802;-77
2021/12/18 04:39:34;;;;;;;;;;;;;;;;;;2050514;28;734;-76
2021/12/18 04:40:37;;;;;;;;;;;;;;;;;;2050754;29;1356;-76
2021/12/18 04:41:40;;;;;;;;;;;;;;;;;;2056778;28;2104;-77
2021/12/18 04:42:42;;;;;;;;;;;;;;;;;;2059184;28;793;-78
2021/12/18 04:43:43;;;;;;;;;;;;;;;;;;2058405;28;1285;-78
2021/12/18 04:44:45;;;;;;;;;;;;;;;;;;2058755;28;733;-77
2021/12/18 04:45:45;;;;;;;;;;;;;;;;;;2067022;28;828;-78
2021/12/18 04:46:48;;;;;;;;;;;;;;;;;;2052081;28;896;-77
2021/12/18 04:47:48;;;;;;;;;;;;;;;;;;2050402;29;1509;-77
2021/12/18 04:48:50;;;;;;;;;;;;;;;;;;2042708;29;1304;-77
2021/12/18 04:49:51;;;;;;;;;;;;;;;;;;2042450;29;1238;-77
2021/12/18 04:50:52;;;;;;;;;;;;;;;;;;2050816;28;1751;-77
2021/12/18 04:51:53;;;;;;;;;;;;;;;;;;2042552;29;1653;-77
2021/12/18 04:52:55;;;;;;;;;;;;;;;;;;2042528;29;1343;-77
2021/12/18 04:53:56;;;;;;;;;;;;;;;;;;2050428;29;950;-77
2021/12/18 04:54:57;;;;;;;;;;;;;;;;;;2050643;29;1763;-76
2021/12/18 04:56:00;;;;;;;;;;;;;;;;;;2043822;29;2026;-78
2021/12/18 04:57:01;;;;;;;;;;;;;;;;;;2050520;28;1540;-77
2021/12/18 04:58:03;;;;;;;;;;;;;;;;;;2058522;28;1552;-77
2021/12/18 04:59:05;;;;;;;;;;;;;;;;;;2058408;28;835;-78
2021/12/18 05:00:08;;;;;;;;;;;;;;;;;;2058202;28;1667;-78
2021/12/18 05:01:08;;;;;;;;;;;;;;;;;;2056250;28;1265;-77
2021/12/18 05:02:10;;;;;;;;;;;;;;;;;;2042599;29;1492;-78
2021/12/18 05:03:13;;;;;;;;;;;;;;;;;;2042418;29;1233;-78
2021/12/18 05:04:15;;;;;;;;;;;;;;;;;;2034935;29;1419;-77
2021/12/18 05:05:15;;;;;;;;;;;;;;;;;;2042495;29;2002;-78
2021/12/18 05:06:17;;;;;;;;;;;;;;;;;;2050711;28;1729;-77
2021/12/18 05:07:18;;;;;;;;;;;;;;;;;;2050532;29;1555;-77
2021/12/18 05:08:19;;;;;;;;;;;;;;;;;;2050588;29;1699;-77
2021/12/18 05:09:20;;;;;;;;;;;;;;;;;;2042253;29;1425;-77
2021/12/18 05:10:22;;;;;;;;;;;;;;;;;;2042518;29;1352;-78
2021/12/18 05:11:24;;;;;;;;;;;;;;;;;;2050216;28;1873;-79
2021/12/18 05:12:25;;;;;;;;;;;;;;;;;;2050418;29;1288;-78
2021/12/18 05:13:26;;;;;;;;;;;;;;;;;;2050224;29;884;-78
2021/12/18 05:14:28;;;;;;;;;;;;;;;;;;2042394;29;1652;-77
2021/12/18 05:15:28;;;;;;;;;;;;;;;;;;2042098;29;1906;-78
2021/12/18 05:16:30;;;;;;;;;;;;;;;;;;2060671;28;1870;-78
2021/12/18 05:17:30;;;;;;;;;;;;;;;;;;2066800;28;1015;-79
2021/12/18 05:18:32;;;;;;;;;;;;;;;;;;2066724;28;1097;-79
2021/12/18 05:19:33;;;;;;;;;;;;;;;;;;2057993;28;1298;-78
2021/12/18 05:20:34;;;;;;;;;;;;;;;;;;2058240;28;986;-78
2021/12/18 05:21:35;;;;;;;;;;;;;;;;;;2051400;28;2092;-78
2021/12/18 05:22:37;;;;;;;;;;;;;;;;;;2056672;28;1294;-78
2021/12/18 05:23:39;;;;;;;;;;;;;;;;;;2065892;28;1510;-79
2021/12/18 05:24:41;;;;;;;;;;;;;;;;;;2058149;28;1277;-79
2021/12/18 05:25:42;;;;;;;;;;;;;;;;;;2058155;28;1063;-79
2021/12/18 05:26:44;;;;;;;;;;;;;;;;;;2058568;28;2075;-78
2021/12/18 05:27:46;;;;;;;;;;;;;;;;;;2058106;28;979;-80
2021/12/18 05:28:46;;;;;;;;;;;;;;;;;;2058039;28;1309;-78
2021/12/18 05:29:48;;;;;;;;;;;;;;;;;;2057757;28;1506;-78
2021/12/18 05:30:49;;;;;;;;;;;;;;;;;;2050832;28;1271;-79
2021/12/18 05:31:50;;;;;;;;;;;;;;;;;;2058084;28;889;-78
2021/12/18 05:32:51;;;;;;;;;;;;;;;;;;2058890;28;824;-79
2021/12/18 05:33:58;;;;;;;;;;;;;;;;;;2058106;28;856;-78
2021/12/18 05:34:58;;;;;;;;;;;;;;;;;;2057848;28;1556;-78
2021/12/18 05:36:00;;;;;;;;;;;;;;;;;;2057875;28;2032;-78
2021/12/18 05:37:30;;;;;;;;;;;;;;;;;;2058493;28;769;-78
2021/12/18 05:38:32;;;;;;;;;;;;;;;;;;2053756;28;832;-79
2021/12/18 05:39:32;;;;;;;;;;;;;;;;;;2058285;28;1110;-78
2021/12/18 05:40:37;;;;;;;;;;;;;;;;;;2058607;28;907;-78
2021/12/18 05:41:38;;;;;;;;;;;;;;;;;;2057675;28;1995;-78
2021/12/18 05:42:41;;;;;;;;;;;;;;;;;;2058023;28;1541;-78
2021/12/18 05:43:42;;;;;;;;;;;;;;;;;;2049797;29;1650;-79
2021/12/18 05:44:43;;;;;;;;;;;;;;;;;;2049770;29;1212;-79
2021/12/18 05:45:46;;;;;;;;;;;;;;;;;;2049670;28;1229;-79
2021/12/18 05:46:47;;;;;;;;;;;;;;;;;;2049478;29;2100;-80
2021/12/18 05:47:49;;;;;;;;;;;;;;;;;;2047227;29;1761;-78
2021/12/18 05:48:50;;;;;;;;;;;;;;;;;;2049869;28;872;-79
2021/12/18 05:49:52;;;;;;;;;;;;;;;;;;2057652;28;1540;-79
2021/12/18 05:50:52;;;;;;;;;;;;;;;;;;2057667;28;2099;-78
2021/12/18 05:51:54;;;;;;;;;;;;;;;;;;2057676;28;1408;-78
2021/12/18 05:52:55;;;;;;;;;;;;;;;;;;2049768;29;1225;-78
2021/12/18 05:53:56;;;;;;;;;;;;;;;;;;2057677;28;1772;-79
2021/12/18 05:54:57;;;;;;;;;;;;;;;;;;2057604;28;812;-80
2021/12/18 05:55:59;;;;;;;;;;;;;;;;;;2058724;28;2060;-78
2021/12/18 05:56:59;;;;;;;;;;;;;;;;;;2057557;28;1494;-78
2021/12/18 05:58:02;;;;;;;;;;;;;;;;;;2053414;28;1529;-78
2021/12/18 05:59:04;;;;;;;;;;;;;;;;;;2049624;28;844;-78
2021/12/18 06:00:07;;;;;;;;;;;;;;;;;;2058402;28;848;-77
2021/12/18 06:01:08;;;;;;;;;;;;;;;;;;2050134;28;936;-78
2021/12/18 06:02:10;;;;;;;;;;;;;;;;;;2058211;28;809;-80
2021/12/18 06:03:11;;;;;;;;;;;;;;;;;;2049637;29;1218;-78
2021/12/18 06:04:12;;;;;;;;;;;;;;;;;;2050036;28;1087;-78
2021/12/18 06:05:13;;;;;;;;;;;;;;;;;;2063871;28;1546;-78
2021/12/18 06:06:15;;;;;;;;;;;;;;;;;;2063042;28;2086;-78
2021/12/18 06:07:28;;;;;;;;;;;;;;;;;;2057492;28;1520;-79
2021/12/18 06:08:31;;;;;;;;;;;;;;;;;;2057297;28;1613;-78
2021/12/18 06:09:35;;;;;;;;;;;;;;;;;;2056945;28;1311;-78
2021/12/18 06:10:37;;;;;;;;;;;;;;;;;;2049237;29;1633;-78
2021/12/18 06:11:40;;;;;;;;;;;;;;;;;;2056071;28;931;-78
2021/12/18 06:12:41;;;;;;;;;;;;;;;;;;2067574;28;777;-78
2021/12/18 06:13:45;;;;;;;;;;;;;;;;;;2065041;28;1646;-80
2021/12/18 06:14:46;;;;;;;;;;;;;;;;;;2057546;28;1243;-80
2021/12/18 06:15:47;;;;;;;;;;;;;;;;;;2057166;28;1325;-78
2021/12/18 06:16:48;;;;;;;;;;;;;;;;;;2049667;28;1902;-78
2021/12/18 06:17:49;;;;;;;;;;;;;;;;;;2040188;29;1228;-79
2021/12/18 06:18:50;;;;;;;;;;;;;;;;;;2048436;29;1334;-79
2021/12/18 06:19:52;;;;;;;;;;;;;;;;;;2049096;29;951;-79
2021/12/18 06:20:52;;;;;;;;;;;;;;;;;;2058189;28;2062;-79
2021/12/18 06:21:54;;;;;;;;;;;;;;;;;;2056594;28;1400;-78
2021/12/18 06:22:55;;;;;;;;;;;;;;;;;;2049506;29;1570;-78
2021/12/18 06:23:56;;;;;;;;;;;;;;;;;;2049184;28;1645;-78
2021/12/18 06:24:57;;;;;;;;;;;;;;;;;;2057380;28;772;-81
2021/12/18 06:25:59;;;;;;;;;;;;;;;;;;2057846;28;1893;-78
2021/12/18 06:26:59;;;;;;;;;;;;;;;;;;2056820;28;1554;-77
2021/12/18 06:28:01;;;;;;;;;;;;;;;;;;2053253;28;1504;-77
2021/12/18 06:29:03;;;;;;;;;;;;;;;;;;2056949;28;836;-77
2021/12/18 06:30:05;;;;;;;;;;;;;;;;;;2056973;28;1626;-79
2021/12/18 06:31:06;;;;;;;;;;;;;;;;;;2055416;28;2000;-77
2021/12/18 06:32:08;;;;;;;;;;;;;;;;;;2057240;28;1230;-77
2021/12/18 06:33:08;;;;;;;;;;;;;;;;;;2057268;28;1669;-77
2021/12/18 06:34:10;;;;;;;;;;;;;;;;;;2057279;28;1751;-77
2021/12/18 06:35:10;;;;;;;;;;;;;;;;;;2057321;28;960;-76
2021/12/18 06:36:12;;;;;;;;;;;;;;;;;;2057864;28;2000;-78
2021/12/18 06:37:13;;;;;;;;;;;;;;;;;;2057351;28;1632;-77
2021/12/18 06:38:15;;;;;;;;;;;;;;;;;;2057285;28;1210;-78
2021/12/18 06:39:15;;;;;;;;;;;;;;;;;;2057278;28;1387;-78
2021/12/18 06:40:17;;;;;;;;;;;;;;;;;;2057753;28;996;-80
2021/12/18 06:41:18;;;;;;;;;;;;;;;;;;2053561;28;1921;-76
2021/12/18 06:42:19;;;;;;;;;;;;;;;;;;2041550;29;1673;-77
2021/12/18 06:43:21;;;;;;;;;;;;;;;;;;2049526;28;836;-77
2021/12/18 06:44:23;;;;;;;;;;;;;;;;;;2049569;29;1362;-76
2021/12/18 06:45:25;;;;;;;;;;;;;;;;;;2049951;28;741;-76
2021/12/18 06:46:25;;;;;;;;;;;;;;;;;;2064525;28;2012;-75
2021/12/18 06:47:27;;;;;;;;;;;;;;;;;;2067222;28;1247;-77
2021/12/18 06:48:28;;;;;;;;;;;;;;;;;;2067253;28;932;-77
2021/12/18 06:49:29;;;;;;;;;;;;;;;;;;2054633;28;1764;-76
2021/12/18 06:50:30;;;;;;;;;;;;;;;;;;2051500;28;936;-76
2021/12/18 06:51:32;;;;;;;;;;;;;;;;;;2059898;28;2039;-77
2021/12/18 06:52:32;;;;;;;;;;;;;;;;;;2059668;28;1078;-76
2021/12/18 06:53:34;;;;;;;;;;;;;;;;;;2059480;28;903;-77
2021/12/18 06:54:35;;;;;;;;;;;;;;;;;;2059735;28;816;-76
2021/12/18 06:55:36;;;;;;;;;;;;;;;;;;2058899;28;1714;-77
2021/12/18 06:56:37;;;;;;;;;;;;;;;;;;2053194;28;1981;-76
2021/12/18 06:57:39;;;;;;;;;;;;;;;;;;2051033;29;1751;-77
2021/12/18 06:58:40;;;;;;;;;;;;;;;;;;2050981;29;1294;-76
2021/12/18 06:59:43;;;;;;;;;;;;;;;;;;2043211;29;1258;-76
2021/12/18 07:00:44;;;;;;;;;;;;;;;;;;2051358;28;832;-77
2021/12/18 07:01:46;;;;;;;;;;;;;;;;;;2074033;28;1488;-77
2021/12/18 07:02:46;;;;;;;;;;;;;;;;;;2067234;28;1316;-80
2021/12/18 07:03:48;;;;;;;;;;;;;;;;;;2066924;28;1620;-78
2021/12/18 07:04:49;;;;;;;;;;;;;;;;;;2075280;28;907;-76
2021/12/18 07:05:51;;;;;;;;;;;;;;;;;;2065827;28;1527;-77
2021/12/18 07:06:52;;;;;;;;;;;;;;;;;;2058320;28;1539;-77
2021/12/18 07:07:55;;;;;;;;;;;;;;;;;;2058878;28;1542;-76
2021/12/18 07:08:56;;;;;;;;;;;;;;;;;;2059236;28;813;-76
2021/12/18 07:09:57;;;;;;;;;;;;;;;;;;2058818;28;1605;-76
2021/12/18 07:10:58;;;;;;;;;;;;;;;;;;2051027;29;1538;-77
2021/12/18 07:12:00;;;;;;;;;;;;;;;;;;2051324;29;872;-76
2021/12/18 07:13:02;;;;;;;;;;;;;;;;;;2058821;28;1613;-77
2021/12/18 07:14:02;;;;;;;;;;;;;;;;;;2059002;28;844;-76
2021/12/18 07:15:07;;;;;;;;;;;;;;;;;;2059543;28;1220;-77
2021/12/18 07:16:07;;;;;;;;;;;;;;;;;;2050987;28;1997;-77
2021/12/18 07:17:09;;;;;;;;;;;;;;;;;;2042818;29;1914;-77
2021/12/18 07:18:09;;;;;;;;;;;;;;;;;;2051125;28;1644;-76
2021/12/18 07:19:11;;;;;;;;;;;;;;;;;;2064507;28;1423;-78
2021/12/18 07:20:13;;;;;;;;;;;;;;;;;;2066752;28;1305;-76
2021/12/18 07:21:14;;;;;;;;;;;;;;;;;;2063546;28;1774;-77
2021/12/18 07:22:15;;;;;;;;;;;;;;;;;;2060357;28;1487;-77
2021/12/18 07:23:17;;;;;;;;;;;;;;;;;;2058845;28;1391;-77
2021/12/18 07:24:17;;;;;;;;;;;;;;;;;;2058593;28;1432;-77
2021/12/18 07:25:19;;;;;;;;;;;;;;;;;;2050420;29;1701;-77
2021/12/18 07:26:20;;;;;;;;;;;;;;;;;;2050801;28;1289;-76
2021/12/18 07:27:21;;;;;;;;;;;;;;;;;;2050373;29;1506;-76
2021/12/18 07:28:22;;;;;;;;;;;;;;;;;;2050579;28;1230;-77
2021/12/18 07:29:24;;;;;;;;;;;;;;;;;;2050709;29;1304;-77
2021/12/18 07:30:26;;;;;;;;;;;;;;;;;;2042715;29;1479;-78
2021/12/18 07:31:27;;;;;;;;;;;;;;;;;;2049918;28;2010;-77
2021/12/18 07:32:29;;;;;;;;;;;;;;;;;;2047404;29;1353;-78
2021/12/18 07:33:31;;;;;;;;;;;;;;;;;;2045396;29;1360;-77
2021/12/18 07:34:32;;;;;;;;;;;;;;;;;;2054757;28;1242;-78
2021/12/18 07:35:33;;;;;;;;;;;;;;;;;;2046693;29;1748;-79
2021/12/18 07:36:34;;;;;;;;;;;;;;;;;;2043834;28;2062;-78
2021/12/18 07:37:36;;;;;;;;;;;;;;;;;;2047332;29;1544;-77
2021/12/18 07:38:36;;;;;;;;;;;;;;;;;;2046263;29;1339;-77
2021/12/18 07:39:38;;;;;;;;;;;;;;;;;;2046555;29;1550;-77
2021/12/18 07:40:39;;;;;;;;;;;;;;;;;;2048725;28;1512;-77
2021/12/18 07:41:40;;;;;;;;;;;;;;;;;;2044163;29;1369;-77
2021/12/18 07:42:42;;;;;;;;;;;;;;;;;;2043128;29;1798;-79
2021/12/18 07:43:44;;;;;;;;;;;;;;;;;;2042462;29;1723;-78
2021/12/18 07:44:44;;;;;;;;;;;;;;;;;;2050248;28;1293;-78